createdAt,value
2023-03-18T00:01:18.260Z,6.72
2023-03-18T00:03:23.129Z,6.80
2023-03-18T00:05:28.171Z,7.68
2023-03-18T00:07:32.944Z,5.65
2023-03-18T00:09:37.761Z,7.72
2023-03-18T00:11:42.937Z,6.30
2023-03-18T00:13:48.107Z,6.38
2023-03-18T00:18:01.804Z,8.10
2023-03-18T00:20:07.604Z,9.15
2023-03-18T00:22:13.476Z,8.20
2023-03-18T00:24:18.336Z,6.82
2023-03-18T00:26:23.226Z,7.10
2023-03-18T00:28:28.473Z,7.22
2023-03-18T00:30:33.681Z,5.05
2023-03-18T00:32:38.921Z,7.70
2023-03-18T00:34:46.615Z,5.43
2023-03-18T00:36:57.037Z,7.53
2023-03-18T00:39:03.724Z,6.40
2023-03-18T00:41:16.168Z,7.28
2023-03-18T00:43:22.726Z,6.40
2023-03-18T00:45:27.556Z,5.38
2023-03-18T00:47:33.753Z,5.88
2023-03-18T00:49:38.616Z,6.82
2023-03-18T00:51:46.498Z,7.03
2023-03-18T00:53:53.151Z,5.70
2023-03-18T00:55:57.959Z,5.85
2023-03-18T00:58:03.177Z,8.10
2023-03-18T01:00:09.858Z,5.85
2023-03-18T01:02:14.814Z,5.50
2023-03-18T01:04:21.653Z,6.47
2023-03-18T01:08:36.006Z,6.82
2023-03-18T01:10:40.989Z,5.45
2023-03-18T01:12:49.249Z,5.13
2023-03-18T01:14:54.625Z,5.90
2023-03-18T01:16:59.469Z,5.13
2023-03-18T01:19:04.525Z,6.45
2023-03-18T01:21:12.127Z,5.35
2023-03-18T01:23:24.522Z,6.35
2023-03-18T01:27:37.691Z,6.13
2023-03-18T01:29:42.713Z,4.97
2023-03-18T01:31:55.046Z,5.93
2023-03-18T01:34:01.175Z,5.90
2023-03-18T01:36:15.372Z,6.90
2023-03-18T01:38:20.618Z,5.53
2023-03-18T01:40:26.144Z,6.38
2023-03-18T01:42:36.117Z,5.20
2023-03-18T01:44:41.080Z,5.68
2023-03-18T01:46:47.879Z,6.75
2023-03-18T01:48:54.882Z,5.45
2023-03-18T01:51:04.562Z,6.07
2023-03-18T01:53:13.273Z,7.00
2023-03-18T01:55:22.711Z,6.00
2023-03-18T01:57:27.792Z,5.13
2023-03-18T01:59:39.061Z,5.75
2023-03-18T02:01:48.159Z,4.82
2023-03-18T02:03:55.430Z,5.18
2023-03-18T02:06:00.503Z,5.95
2023-03-18T02:10:14.349Z,6.88
2023-03-18T02:12:24.840Z,5.45
2023-03-18T02:14:36.062Z,6.68
2023-03-18T02:16:47.505Z,7.72
2023-03-18T02:18:56.972Z,6.22
2023-03-18T02:21:16.925Z,6.55
2023-03-18T02:23:31.412Z,5.07
2023-03-18T02:25:45.749Z,6.13
2023-03-18T02:27:59.553Z,5.90
2023-03-18T02:30:13.302Z,5.68
2023-03-18T02:32:20.385Z,6.38
2023-03-18T02:34:27.540Z,7.88
2023-03-18T02:36:35.312Z,5.50
2023-03-18T02:38:48.627Z,6.72
2023-03-18T02:41:00.187Z,6.07
2023-03-18T02:43:26.485Z,9.32
2023-03-18T02:45:43.793Z,6.25
2023-03-18T02:49:56.763Z,6.43
2023-03-18T02:52:02.129Z,6.38
2023-03-18T02:54:11.158Z,5.63
2023-03-18T02:56:16.964Z,6.57
2023-03-18T02:58:25.415Z,5.15
2023-03-18T03:00:33.514Z,6.47
2023-03-18T03:02:38.602Z,6.80
2023-03-18T03:04:44.171Z,6.75
2023-03-18T03:06:49.721Z,8.65
2023-03-18T03:08:58.889Z,9.55
2023-03-18T03:11:03.770Z,7.50
2023-03-18T03:13:11.720Z,5.22
2023-03-18T03:15:20.651Z,5.35
2023-03-18T03:17:31.896Z,8.10
2023-03-18T03:19:36.913Z,7.55
2023-03-18T03:21:42.482Z,8.15
2023-03-18T03:23:48.312Z,8.38
2023-03-18T03:25:53.141Z,7.30
2023-03-18T03:30:03.289Z,8.80
2023-03-18T03:32:12.046Z,8.27
2023-03-18T03:34:16.884Z,6.40
2023-03-18T03:36:21.991Z,6.03
2023-03-18T03:38:26.824Z,6.55
2023-03-18T03:40:34.084Z,6.22
2023-03-18T03:42:39.046Z,6.72
2023-03-18T03:44:43.951Z,5.30
2023-03-18T03:46:49.057Z,7.78
2023-03-18T03:51:01.409Z,5.93
2023-03-18T03:53:07.590Z,7.43
2023-03-18T03:55:15.223Z,5.63
2023-03-18T03:57:20.914Z,5.38
2023-03-18T03:59:26.119Z,6.57
2023-03-18T04:01:52.090Z,6.60
2023-03-18T04:04:00.808Z,5.75
2023-03-18T04:06:06.718Z,8.48
2023-03-18T04:08:13.367Z,5.88
2023-03-18T04:10:20.778Z,8.85
2023-03-18T04:12:25.762Z,7.07
2023-03-18T04:14:36.113Z,8.15
2023-03-18T04:16:40.937Z,8.80
2023-03-18T04:18:47.345Z,6.63
2023-03-18T04:23:29.538Z,6.60
2023-03-18T04:25:35.414Z,7.32
2023-03-18T04:27:40.408Z,7.28
2023-03-18T04:29:48.095Z,8.02
2023-03-18T04:31:53.262Z,7.90
2023-03-18T04:34:00.512Z,5.40
2023-03-18T04:36:09.328Z,8.93
2023-03-18T04:38:15.412Z,5.57
2023-03-18T04:40:21.151Z,5.93
2023-03-18T04:44:30.800Z,7.10
2023-03-18T04:46:38.912Z,7.68
2023-03-18T04:48:44.785Z,5.80
2023-03-18T04:50:50.756Z,7.45
2023-03-18T04:53:04.404Z,7.88
2023-03-18T04:55:11.187Z,7.53
2023-03-18T04:57:18.422Z,6.85
2023-03-18T04:59:29.029Z,5.68
2023-03-18T05:01:35.349Z,6.00
2023-03-18T05:03:40.435Z,6.65
2023-03-18T05:05:46.299Z,7.32
2023-03-18T05:07:54.522Z,7.15
2023-03-18T05:10:03.041Z,5.80
2023-03-18T05:12:08.399Z,6.95
2023-03-18T05:14:15.727Z,7.70
2023-03-18T05:16:24.894Z,5.78
2023-03-18T05:18:30.142Z,5.22
2023-03-18T05:20:39.775Z,6.03
2023-03-18T05:22:44.789Z,6.22
2023-03-18T05:25:03.517Z,7.22
2023-03-18T05:27:09.397Z,6.22
2023-03-18T05:29:18.205Z,5.38
2023-03-18T05:31:35.213Z,5.32
2023-03-18T05:33:42.394Z,5.90
2023-03-18T05:35:48.491Z,7.65
2023-03-18T05:37:56.035Z,5.97
2023-03-18T05:40:04.320Z,6.03
2023-03-18T05:42:11.248Z,6.32
2023-03-18T05:44:17.047Z,4.78
2023-03-18T05:46:22.941Z,4.80
2023-03-18T05:48:54.492Z,7.18
2023-03-18T05:51:01.698Z,5.80
2023-03-18T05:53:09.681Z,6.07
2023-03-18T05:55:20.106Z,6.47
2023-03-18T05:57:25.031Z,4.75
2023-03-18T05:59:45.465Z,7.18
2023-03-18T06:01:50.475Z,7.10
2023-03-18T06:03:56.264Z,6.57
2023-03-18T06:06:01.774Z,5.57
2023-03-18T06:08:07.288Z,5.03
2023-03-18T06:10:15.153Z,7.57
2023-03-18T06:12:27.463Z,6.13
2023-03-18T06:14:32.796Z,5.78
2023-03-18T06:16:42.812Z,6.53
2023-03-18T06:18:57.718Z,8.73
2023-03-18T06:21:05.001Z,5.57
2023-03-18T06:23:14.454Z,5.90
2023-03-18T06:25:56.811Z,5.93
2023-03-18T06:28:26.092Z,7.68
2023-03-18T06:30:37.313Z,5.93
2023-03-18T06:32:54.431Z,9.32
2023-03-18T06:37:42.299Z,5.60
2023-03-18T06:39:55.266Z,7.40
2023-03-18T06:42:11.104Z,8.25
2023-03-18T06:44:43.292Z,7.05
2023-03-18T06:47:54.504Z,5.40
2023-03-18T06:50:32.720Z,6.30
2023-03-18T06:52:43.847Z,6.05
2023-03-18T06:54:52.205Z,6.70
2023-03-18T06:57:03.426Z,6.40
2023-03-18T06:59:13.019Z,9.05
2023-03-18T07:01:23.204Z,11.90
2023-03-18T07:03:29.371Z,9.35
2023-03-18T07:05:47.307Z,6.10
2023-03-18T07:07:57.294Z,8.82
2023-03-18T07:10:22.747Z,7.38
2023-03-18T07:12:36.261Z,6.68
2023-03-18T07:14:49.652Z,7.78
2023-03-18T07:17:10.600Z,7.00
2023-03-18T07:19:20.774Z,7.13
2023-03-18T07:21:33.693Z,8.45
2023-03-18T07:23:41.344Z,8.82
2023-03-18T07:25:55.128Z,5.75
2023-03-18T07:28:00.319Z,6.45
2023-03-18T07:32:19.941Z,7.97
2023-03-18T07:34:30.957Z,7.38
2023-03-18T07:36:43.105Z,9.85
2023-03-18T07:38:52.079Z,6.43
2023-03-18T07:41:00.352Z,9.25
2023-03-18T07:43:05.525Z,9.70
2023-03-18T07:45:12.396Z,10.88
2023-03-18T07:47:30.229Z,8.07
2023-03-18T07:49:38.528Z,8.05
2023-03-18T07:51:43.298Z,9.50
2023-03-18T07:53:48.116Z,6.68
2023-03-18T07:55:53.025Z,7.10
2023-03-18T07:57:57.838Z,7.88
2023-03-18T08:00:02.751Z,5.75
2023-03-18T08:02:20.519Z,6.10
2023-03-18T08:04:25.488Z,8.25
2023-03-18T08:06:30.464Z,7.28
2023-03-18T08:08:38.165Z,9.65
2023-03-18T08:10:43.044Z,10.18
2023-03-18T08:12:53.179Z,7.15
2023-03-18T08:14:59.966Z,6.90
2023-03-18T08:17:05.085Z,6.75
2023-03-18T08:19:12.735Z,6.38
2023-03-18T08:21:17.699Z,6.10
2023-03-18T08:23:22.476Z,7.43
2023-03-18T08:25:27.393Z,6.60
2023-03-18T08:27:32.306Z,5.88
2023-03-18T08:29:37.091Z,9.55
2023-03-18T08:31:42.020Z,8.75
2023-03-18T08:33:47.731Z,7.28
2023-03-18T08:35:56.060Z,9.45
2023-03-18T08:38:00.879Z,9.13
2023-03-18T08:40:08.002Z,6.53
2023-03-18T08:42:13.455Z,6.60
2023-03-18T08:44:18.305Z,10.65
2023-03-18T08:46:23.169Z,6.97
2023-03-18T08:48:28.491Z,6.47
2023-03-18T08:50:33.314Z,8.07
2023-03-18T08:52:41.324Z,5.80
2023-03-18T08:54:46.108Z,8.27
2023-03-18T08:56:52.755Z,8.88
2023-03-18T08:58:57.569Z,7.22
2023-03-18T09:01:03.628Z,10.13
2023-03-18T09:03:08.909Z,6.78
2023-03-18T09:05:13.919Z,5.53
2023-03-18T09:07:19.271Z,6.30
2023-03-18T09:09:40.841Z,7.03
2023-03-18T09:11:48.639Z,5.40
2023-03-18T09:13:53.735Z,5.93
2023-03-18T09:15:58.511Z,6.07
2023-03-18T09:18:12.206Z,7.35
2023-03-18T09:20:19.806Z,7.25
2023-03-18T09:22:24.689Z,7.85
2023-03-18T09:24:32.175Z,7.72
2023-03-18T09:26:37.083Z,6.05
2023-03-18T09:28:42.248Z,5.60
2023-03-18T09:32:52.217Z,6.25
2023-03-18T09:34:57.198Z,6.55
2023-03-18T09:37:02.071Z,6.28
2023-03-18T09:39:07.162Z,5.95
2023-03-18T09:41:28.017Z,8.23
2023-03-18T09:43:55.851Z,6.10
2023-03-18T09:46:09.707Z,5.78
2023-03-18T09:48:44.313Z,6.05
2023-03-18T09:51:04.240Z,5.60
2023-03-18T09:53:19.385Z,5.97
2023-03-18T09:55:30.555Z,5.72
2023-03-18T09:57:42.748Z,5.88
2023-03-18T09:59:50.566Z,5.38
2023-03-18T10:01:58.444Z,10.70
2023-03-18T10:04:07.659Z,6.00
2023-03-18T10:06:19.807Z,6.82
2023-03-18T10:08:38.712Z,6.13
2023-03-18T10:10:48.249Z,5.57
2023-03-18T10:13:05.501Z,6.18
2023-03-18T10:15:19.479Z,6.63
2023-03-18T10:17:30.316Z,5.43
2023-03-18T10:19:39.938Z,4.75
2023-03-18T10:21:51.080Z,4.82
2023-03-18T10:24:06.147Z,6.03
2023-03-18T10:26:19.795Z,4.50
2023-03-18T10:28:43.615Z,5.55
2023-03-18T10:31:00.861Z,6.85
2023-03-18T10:33:14.546Z,4.55
2023-03-18T10:35:35.373Z,4.53
2023-03-18T10:37:52.028Z,4.47
2023-03-18T10:39:57.509Z,7.40
2023-03-18T10:42:13.603Z,7.03
2023-03-18T10:44:25.600Z,6.50
2023-03-18T10:46:30.685Z,5.53
2023-03-18T10:50:49.229Z,4.22
2023-03-18T10:52:59.759Z,5.68
2023-03-18T10:55:04.985Z,5.00
2023-03-18T10:57:13.130Z,7.25
2023-03-18T10:59:24.641Z,4.45
2023-03-18T11:01:31.805Z,4.10
2023-03-18T11:03:39.936Z,7.50
2023-03-18T11:05:45.660Z,2.95
2023-03-18T11:08:01.690Z,4.40
2023-03-18T11:10:21.663Z,2.90
2023-03-18T11:12:29.232Z,5.55
2023-03-18T11:14:39.254Z,6.20
2023-03-18T11:16:50.200Z,4.10
2023-03-18T11:18:55.617Z,4.85
2023-03-18T11:23:13.751Z,5.68
2023-03-18T11:25:21.000Z,5.57
2023-03-18T11:27:29.954Z,3.40
2023-03-18T11:29:38.368Z,4.70
2023-03-18T11:31:53.284Z,6.13
2023-03-18T11:34:00.874Z,4.90
2023-03-18T11:36:13.328Z,3.35
2023-03-18T11:38:20.697Z,4.13
2023-03-18T11:40:32.375Z,4.22
2023-03-18T11:42:38.088Z,5.47
2023-03-18T11:44:46.661Z,6.18
2023-03-18T11:46:58.752Z,3.72
2023-03-18T11:49:04.214Z,2.80
2023-03-18T11:51:29.983Z,3.10
2023-03-18T11:53:51.285Z,4.53
2023-03-18T11:56:02.492Z,2.28
2023-03-18T11:58:36.909Z,2.45
2023-03-18T12:00:52.697Z,4.25
2023-03-18T12:03:22.735Z,5.32
2023-03-18T12:05:43.687Z,6.45
2023-03-18T12:07:58.496Z,7.45
2023-03-18T12:10:13.080Z,6.80
2023-03-18T12:12:34.399Z,6.07
2023-03-18T12:14:46.669Z,3.15
2023-03-18T12:17:05.498Z,3.60
2023-03-18T12:19:27.121Z,4.07
2023-03-18T12:22:00.916Z,4.03
2023-03-18T12:24:29.674Z,6.10
2023-03-18T12:26:44.029Z,4.80
2023-03-18T12:29:15.015Z,4.10
2023-03-18T12:31:42.018Z,2.85
2023-03-18T12:33:57.920Z,5.30
2023-03-18T12:36:13.094Z,3.70
2023-03-18T12:38:45.165Z,9.68
2023-03-18T12:41:02.134Z,4.55
2023-03-18T12:43:33.599Z,3.85
2023-03-18T12:45:43.337Z,4.70
2023-03-18T12:47:52.712Z,5.07
2023-03-18T12:50:02.755Z,7.40
2023-03-18T12:52:11.519Z,4.32
2023-03-18T12:54:23.753Z,5.32
2023-03-18T12:56:32.789Z,4.57
2023-03-18T12:58:43.006Z,2.67
2023-03-18T13:00:53.841Z,4.85
2023-03-18T13:03:07.280Z,3.97
2023-03-18T13:05:27.615Z,4.07
2023-03-18T13:07:40.761Z,5.18
2023-03-18T13:09:51.115Z,3.10
2023-03-18T13:12:07.752Z,5.82
2023-03-18T13:14:21.862Z,4.32
2023-03-18T13:16:26.807Z,4.03
2023-03-18T13:18:38.690Z,4.35
2023-03-18T13:20:46.931Z,4.55
2023-03-18T13:23:18.062Z,4.72
2023-03-18T13:25:34.735Z,2.97
2023-03-18T13:27:51.675Z,2.60
2023-03-18T13:30:06.254Z,4.35
2023-03-18T13:32:27.799Z,3.15
2023-03-18T13:34:58.904Z,3.35
2023-03-18T13:37:43.187Z,4.35
2023-03-18T13:40:04.640Z,5.43
2023-03-18T13:42:26.038Z,4.03
2023-03-18T13:44:45.274Z,2.28
2023-03-18T13:47:00.180Z,2.97
2023-03-18T13:49:06.630Z,2.60
2023-03-18T13:51:23.638Z,2.83
2023-03-18T13:53:30.950Z,3.90
2023-03-18T13:55:47.449Z,3.03
2023-03-18T13:57:59.953Z,4.82
2023-03-18T14:00:25.473Z,4.35
2023-03-18T14:02:47.582Z,4.13
2023-03-18T14:04:54.280Z,2.92
2023-03-18T14:07:14.688Z,5.85
2023-03-18T14:09:37.076Z,2.33
2023-03-18T14:11:51.918Z,6.40
2023-03-18T14:14:00.684Z,3.95
2023-03-18T14:16:11.361Z,3.67
2023-03-18T14:18:28.333Z,4.95
2023-03-18T14:20:42.282Z,2.92
2023-03-18T14:22:48.716Z,3.78
2023-03-18T14:25:29.395Z,7.22
2023-03-18T14:27:47.758Z,4.22
2023-03-18T14:29:52.547Z,4.97
2023-03-18T14:32:07.865Z,2.47
2023-03-18T14:34:35.972Z,5.50
2023-03-18T14:37:22.406Z,4.88
2023-03-18T14:39:35.681Z,3.45
2023-03-18T14:41:47.081Z,2.38
2023-03-18T14:44:06.598Z,3.13
2023-03-18T14:46:19.325Z,4.15
2023-03-18T14:48:29.371Z,3.17
2023-03-18T14:50:43.142Z,2.97
2023-03-18T14:52:55.856Z,2.15
2023-03-18T14:55:05.416Z,4.20
2023-03-18T14:57:10.457Z,3.28
2023-03-18T14:59:19.106Z,3.28
2023-03-18T15:01:27.760Z,3.60
2023-03-18T15:03:34.213Z,3.50
2023-03-18T15:05:43.075Z,3.10
2023-03-18T15:07:54.173Z,2.55
2023-03-18T15:09:59.121Z,4.85
2023-03-18T15:12:19.388Z,3.17
2023-03-18T15:14:30.192Z,3.47
2023-03-18T15:16:36.762Z,3.70
2023-03-18T15:18:41.981Z,4.00
2023-03-18T15:20:47.908Z,2.72
2023-03-18T15:22:53.275Z,4.70
2023-03-18T15:25:02.401Z,3.13
2023-03-18T15:27:12.237Z,3.42
2023-03-18T15:29:35.143Z,3.90
2023-03-18T15:31:45.934Z,2.95
2023-03-18T15:33:50.751Z,2.25
2023-03-18T15:36:00.430Z,2.20
2023-03-18T15:38:16.186Z,3.20
2023-03-18T15:40:36.414Z,3.25
2023-03-18T15:42:41.503Z,2.58
2023-03-18T15:46:54.727Z,2.03
2023-03-18T15:49:01.005Z,4.68
2023-03-18T15:51:10.993Z,4.07
2023-03-18T15:53:23.622Z,2.72
2023-03-18T15:55:30.772Z,2.60
2023-03-18T15:57:38.253Z,3.90
2023-03-18T15:59:43.152Z,6.68
2023-03-18T16:01:50.542Z,3.50
2023-03-18T16:03:55.512Z,3.70
2023-03-18T16:06:01.069Z,3.33
2023-03-18T16:08:05.903Z,2.47
2023-03-18T16:10:12.463Z,3.40
2023-03-18T16:12:22.299Z,3.50
2023-03-18T16:14:31.703Z,2.95
2023-03-18T16:16:36.908Z,2.35
2023-03-18T16:18:46.748Z,3.72
2023-03-18T16:20:52.975Z,3.10
2023-03-18T16:22:59.833Z,2.35
2023-03-18T16:25:04.634Z,2.95
2023-03-18T16:27:10.279Z,4.72
2023-03-18T16:29:18.820Z,3.97
2023-03-18T16:31:23.772Z,4.90
2023-03-18T16:33:28.667Z,5.00
2023-03-18T16:35:38.472Z,5.82
2023-03-18T16:37:43.667Z,7.80
2023-03-18T16:41:56.557Z,5.80
2023-03-18T16:44:01.364Z,2.60
2023-03-18T16:46:06.615Z,3.60
2023-03-18T16:48:17.406Z,3.72
2023-03-18T16:50:24.605Z,5.45
2023-03-18T16:52:35.390Z,6.70
2023-03-18T16:54:40.172Z,4.97
2023-03-18T16:56:45.444Z,7.95
2023-03-18T16:58:50.690Z,8.65
2023-03-18T17:00:55.860Z,7.82
2023-03-18T17:03:01.208Z,7.28
2023-03-18T17:05:06.658Z,9.52
2023-03-18T17:07:11.461Z,9.05
2023-03-18T17:09:19.385Z,6.35
2023-03-18T17:11:24.509Z,8.05
2023-03-18T17:13:32.076Z,5.93
2023-03-18T17:15:41.565Z,6.72
2023-03-18T17:17:47.465Z,4.78
2023-03-18T17:19:52.232Z,6.45
2023-03-18T17:21:57.195Z,5.78
2023-03-18T17:24:03.162Z,7.40
2023-03-18T17:26:16.390Z,5.93
2023-03-18T17:28:32.648Z,5.30
2023-03-18T17:30:39.792Z,5.07
2023-03-18T17:32:46.232Z,8.27
2023-03-18T17:34:53.529Z,7.80
2023-03-18T17:36:58.744Z,7.97
2023-03-18T17:39:04.362Z,10.23
2023-03-18T17:41:17.559Z,7.60
2023-03-18T17:43:29.235Z,8.05
2023-03-18T17:45:37.057Z,5.80
2023-03-18T17:47:41.922Z,9.07
2023-03-18T17:49:46.707Z,7.65
2023-03-18T17:51:52.210Z,9.68
2023-03-18T17:53:59.394Z,11.75
2023-03-18T17:56:04.814Z,11.18
2023-03-18T17:58:18.608Z,11.75
2023-03-18T18:00:26.390Z,13.10
2023-03-18T18:02:33.888Z,12.68
2023-03-18T18:04:40.004Z,11.13
2023-03-18T18:06:47.860Z,11.95
2023-03-18T18:08:56.155Z,13.88
2023-03-18T18:11:07.246Z,12.68
2023-03-18T18:13:19.587Z,11.43
2023-03-18T18:15:27.751Z,10.20
2023-03-18T18:17:35.056Z,13.88
2023-03-18T18:19:39.887Z,12.20
2023-03-18T18:21:46.221Z,12.88
2023-03-18T18:23:51.424Z,10.27
2023-03-18T18:25:56.252Z,10.75
2023-03-18T18:28:01.178Z,10.50
2023-03-18T18:30:09.833Z,11.23
2023-03-18T18:32:15.688Z,15.88
2023-03-18T18:34:21.365Z,9.77
2023-03-18T18:36:28.257Z,12.13
2023-03-18T18:38:33.160Z,11.90
2023-03-18T18:40:38.638Z,11.60
2023-03-18T18:42:44.393Z,12.00
2023-03-18T18:44:49.568Z,10.63
2023-03-18T18:46:57.361Z,12.38
2023-03-18T18:49:02.558Z,9.77
2023-03-18T18:53:24.148Z,10.10
2023-03-18T18:55:29.230Z,13.23
2023-03-18T18:57:40.270Z,13.75
2023-03-18T18:59:45.760Z,10.85
2023-03-18T19:01:50.646Z,13.38
2023-03-18T19:03:58.261Z,10.07
2023-03-18T19:06:04.955Z,12.05
2023-03-18T19:08:23.212Z,8.68
2023-03-18T19:10:28.067Z,11.35
2023-03-18T19:12:33.027Z,12.82
2023-03-18T19:14:38.183Z,10.25
2023-03-18T19:16:43.517Z,12.48
2023-03-18T19:18:48.602Z,11.35
2023-03-18T19:23:01.032Z,13.10
2023-03-18T19:25:06.180Z,10.18
2023-03-18T19:29:21.888Z,8.82
2023-03-18T19:31:30.819Z,10.45
2023-03-18T19:33:36.429Z,10.48
2023-03-18T19:35:41.559Z,13.50
2023-03-18T19:39:55.120Z,11.60
2023-03-18T19:41:59.993Z,8.73
2023-03-18T19:44:09.746Z,9.15
2023-03-18T19:46:18.974Z,11.02
2023-03-18T19:48:29.002Z,11.15
2023-03-18T19:50:33.788Z,11.43
2023-03-18T19:52:38.731Z,14.38
2023-03-18T19:54:46.300Z,13.88
2023-03-18T19:56:52.543Z,22.17
2023-03-18T19:59:00.749Z,25.77
2023-03-18T20:01:05.617Z,23.02
2023-03-18T20:03:15.845Z,22.50
2023-03-18T20:05:22.933Z,22.98
2023-03-18T20:07:29.889Z,19.63
2023-03-18T20:09:34.681Z,24.33
2023-03-18T20:11:42.296Z,26.23
2023-03-18T20:13:47.802Z,25.02
2023-03-18T20:15:52.567Z,18.45
2023-03-18T20:17:58.257Z,26.02
2023-03-18T20:20:03.778Z,26.23
2023-03-18T20:22:08.568Z,22.40
2023-03-18T20:24:17.303Z,21.15
2023-03-18T20:26:26.753Z,24.55
2023-03-18T20:28:34.305Z,20.23
2023-03-18T20:30:41.480Z,18.00
2023-03-18T20:32:46.442Z,14.00
2023-03-18T20:34:51.345Z,11.57
2023-03-18T20:36:56.204Z,10.82
2023-03-18T20:39:01.362Z,12.23
2023-03-18T20:41:06.799Z,10.52
2023-03-18T20:43:17.045Z,11.30
2023-03-18T20:45:26.979Z,11.52
2023-03-18T20:47:31.831Z,11.23
2023-03-18T20:49:38.125Z,13.32
2023-03-18T20:51:43.845Z,12.60
2023-03-18T20:53:48.691Z,13.52
2023-03-18T20:55:54.072Z,13.50
2023-03-18T20:57:59.695Z,10.90
2023-03-18T21:00:07.042Z,12.50
2023-03-18T21:02:31.837Z,12.93
2023-03-18T21:04:37.296Z,15.73
2023-03-18T21:06:42.175Z,13.90
2023-03-18T21:08:47.028Z,13.73
2023-03-18T21:10:52.295Z,16.98
2023-03-18T21:15:01.981Z,14.27
2023-03-18T21:17:07.073Z,12.27
2023-03-18T21:19:14.551Z,12.23
2023-03-18T21:21:24.787Z,12.43
2023-03-18T21:23:34.584Z,12.43
2023-03-18T21:25:39.382Z,13.00
2023-03-18T21:27:44.372Z,12.75
2023-03-18T21:29:50.064Z,12.18
2023-03-18T21:31:54.922Z,12.75
2023-03-18T21:34:00.155Z,10.48
2023-03-18T21:38:12.765Z,14.80
2023-03-18T21:40:19.739Z,13.65
2023-03-18T21:42:27.640Z,11.07
2023-03-18T21:44:34.349Z,12.57
2023-03-18T21:46:39.267Z,13.00
2023-03-18T21:48:44.570Z,13.82
2023-03-18T21:52:59.184Z,14.90
2023-03-18T21:55:05.473Z,15.13
2023-03-18T21:57:14.684Z,16.55
2023-03-18T21:59:19.572Z,16.95
2023-03-18T22:01:29.674Z,15.48
2023-03-18T22:03:37.831Z,13.38
2023-03-18T22:05:42.988Z,13.68
2023-03-18T22:07:48.278Z,13.35
2023-03-18T22:09:55.807Z,12.48
2023-03-18T22:12:00.605Z,15.95
2023-03-18T22:14:05.378Z,12.68
2023-03-18T22:16:15.096Z,12.75
2023-03-18T22:18:20.193Z,11.23
2023-03-18T22:20:23.367Z,15.85
2023-03-18T22:22:32.153Z,16.80
2023-03-18T22:24:37.075Z,17.60
2023-03-18T22:26:44.440Z,17.80
2023-03-18T22:28:50.672Z,19.30
2023-03-18T22:30:57.178Z,18.55
2023-03-18T22:33:04.242Z,16.15
2023-03-18T22:35:16.706Z,18.02
2023-03-18T22:37:23.931Z,16.40
2023-03-18T22:39:28.732Z,16.73
2023-03-18T22:41:33.522Z,18.98
2023-03-18T22:43:41.015Z,21.33
2023-03-18T22:45:45.861Z,18.58
2023-03-18T22:47:51.585Z,17.73
2023-03-18T22:49:56.620Z,14.60
2023-03-18T22:52:01.503Z,13.32
2023-03-18T22:54:07.715Z,13.20
2023-03-18T22:56:14.547Z,16.55
2023-03-18T22:58:23.098Z,17.95
2023-03-18T23:00:38.290Z,16.67
2023-03-18T23:02:43.164Z,14.65
2023-03-18T23:04:50.865Z,13.60
2023-03-18T23:06:56.230Z,13.40
2023-03-18T23:09:01.068Z,15.90
2023-03-18T23:11:05.877Z,16.60
2023-03-18T23:13:16.874Z,17.48
2023-03-18T23:15:23.998Z,14.43
2023-03-18T23:17:31.484Z,15.73
2023-03-18T23:19:36.425Z,15.35
2023-03-18T23:21:41.445Z,15.35
2023-03-18T23:23:46.566Z,13.55
2023-03-18T23:27:57.260Z,17.58
2023-03-18T23:30:02.043Z,12.82
2023-03-18T23:32:07.223Z,11.38
2023-03-18T23:34:14.624Z,15.13
2023-03-18T23:36:19.475Z,13.38
2023-03-18T23:38:24.300Z,16.88
2023-03-18T23:40:30.483Z,12.18
2023-03-18T23:42:35.839Z,12.15
2023-03-18T23:44:40.898Z,15.18
2023-03-18T23:46:45.842Z,10.15
2023-03-18T23:48:50.643Z,11.20
2023-03-18T23:50:58.146Z,14.55
2023-03-18T23:53:02.937Z,13.20
2023-03-18T23:55:25.966Z,16.58
2023-03-18T23:59:39.563Z,18.35
